.
WxDataArchive / Data Records for 2010-01-29
2010-01-28 January 2010 2010-01-30

Data Records for Friday, 29 January 2010

Time	Temp	Chill	HIndex	Humid	Dewpt	 Wind 	HiWind	WindDir	Rain 	Barom 
-----	----	-----	------	-----	-----	------	------	-------	-----	----- 
00:00	12.4	12.4	12.4	68	3.9	0	1	315	0.00	30.546 
00:05	12.4	12.4	12.4	68	3.9	0	1	315	0.00	30.546 
00:10	12.4	12.4	12.4	68	3.9	0	3	270	0.00	30.546 
00:15	12.4	12.4	12.4	68	3.9	0	3	248	0.00	30.542 
00:20	12.4	12.4	12.4	68	3.9	0	2	248	0.00	30.542 
00:25	12.4	12.4	12.4	68	3.9	0	1	248	0.00	30.542 
00:30	12.4	12.4	12.4	68	3.9	0	0	---	0.00	30.537 
00:35	12.4	12.4	12.4	67	3.6	0	1	248	0.00	30.537 
00:40	12.4	12.4	12.4	68	3.9	0	1	248	0.00	30.537 
00:45	12.4	12.4	12.4	68	3.9	0	1	248	0.00	30.533 
00:50	12.3	12.3	12.3	68	3.8	0	1	248	0.00	30.533 
00:55	12.3	12.3	12.3	68	3.8	0	0	---	0.00	30.533 
01:00	12.3	12.3	12.3	68	3.8	0	0	---	0.00	30.529 
01:05	12.1	12.1	12.1	68	3.6	0	0	---	0.00	30.529 
01:10	12.1	12.1	12.1	69	3.9	0	0	---	0.00	30.529 
01:15	11.9	11.9	11.9	69	3.7	0	0	---	0.00	30.525 
01:20	11.7	11.7	11.7	69	3.5	0	0	---	0.00	30.525 
01:25	11.7	11.7	11.7	70	3.8	0	1	248	0.00	30.525 
01:30	11.7	11.7	11.7	71	4.1	0	1	248	0.00	30.534 
01:35	11.7	11.7	11.7	71	4.1	0	1	248	0.00	30.534 
01:40	11.7	11.7	11.7	71	4.1	0	1	248	0.00	30.534 
01:45	11.7	11.7	11.7	72	4.4	0	0	---	0.00	30.534 
01:50	11.7	11.7	11.7	72	4.4	0	2	248	0.00	30.534 
01:55	11.6	11.6	11.6	72	4.4	0	1	248	0.00	30.534 
02:00	11.6	11.6	11.6	72	4.4	0	0	---	0.00	30.526 
02:05	11.6	11.6	11.6	73	4.7	0	1	248	0.00	30.526 
02:10	11.6	11.6	11.6	73	4.7	0	0	---	0.00	30.526 
02:15	11.4	11.4	11.4	73	4.5	0	0	---	0.00	30.523 
02:20	11.4	11.4	11.4	73	4.5	0	0	---	0.00	30.523 
02:25	11.4	11.4	11.4	73	4.5	0	0	---	0.00	30.523 
02:30	11.2	11.2	11.2	74	4.6	0	0	---	0.00	30.527 
02:35	11.2	11.2	11.2	74	4.6	0	0	---	0.00	30.527 
02:40	11.2	11.2	11.2	74	4.6	0	1	248	0.00	30.527 
02:45	11.1	11.1	11.1	74	4.5	0	0	---	0.00	30.537 
02:50	10.9	10.9	10.9	74	4.3	0	0	---	0.00	30.537 
02:55	10.7	10.7	10.7	75	4.4	0	0	---	0.00	30.537 
03:00	10.7	10.7	10.7	75	4.4	0	0	---	0.00	30.533 
03:05	10.5	10.5	10.5	75	4.2	0	0	---	0.00	30.533 
03:10	10.4	10.4	10.4	75	4.1	0	0	---	0.00	30.533 
03:15	10.4	10.4	10.4	75	4.1	0	0	---	0.00	30.531 
03:20	10.2	10.2	10.2	75	3.9	0	0	---	0.00	30.531 
03:25	10.0	10.0	10.0	75	3.7	0	0	---	0.00	30.531 
03:30	9.9	9.9	9.9	76	3.9	0	0	---	0.00	30.520 
03:35	9.7	9.7	9.7	76	3.7	0	0	---	0.00	30.520 
03:40	9.5	9.5	9.5	76	3.5	0	0	---	0.00	30.520 
03:45	9.3	9.3	9.3	76	3.3	0	0	---	0.00	30.516 
03:50	9.2	9.2	9.2	77	3.5	0	0	---	0.00	30.516 
03:55	9.0	9.0	9.0	77	3.3	0	0	---	0.00	30.516 
04:00	9.0	9.0	9.0	77	3.3	0	0	---	0.00	30.527 
04:05	9.0	9.0	9.0	78	3.6	0	0	---	0.00	30.527 
04:10	9.0	9.0	9.0	78	3.6	0	0	---	0.00	30.527 
04:15	9.0	9.0	9.0	77	3.3	0	0	---	0.00	30.523 
04:20	9.0	9.0	9.0	77	3.3	0	0	---	0.00	30.523 
04:25	9.2	9.2	9.2	77	3.5	0	0	---	0.00	30.523 
04:30	9.2	9.2	9.2	77	3.5	0	1	248	0.00	30.535 
04:35	9.2	9.2	9.2	77	3.5	0	2	248	0.00	30.535 
04:40	9.2	9.2	9.2	77	3.5	0	1	248	0.00	30.535 
04:45	9.2	9.2	9.2	77	3.5	0	1	248	0.00	30.540 
04:50	9.2	9.2	9.2	77	3.5	0	0	---	0.00	30.540 
04:55	9.2	9.2	9.2	76	3.2	0	0	---	0.00	30.540 
05:00	9.2	9.2	9.2	76	3.2	0	0	---	0.00	30.536 
05:05	9.2	9.2	9.2	76	3.2	0	0	---	0.00	30.536 
05:10	9.0	9.0	9.0	76	3.0	0	0	---	0.00	30.536 
05:15	9.0	9.0	9.0	76	3.0	0	0	---	0.00	30.532 
05:20	8.8	8.8	8.8	76	2.8	0	0	---	0.00	30.532 
05:25	8.8	8.8	8.8	76	2.8	0	0	---	0.00	30.532 
05:30	8.6	8.6	8.6	76	2.6	0	0	---	0.00	30.520 
05:35	8.4	8.4	8.4	76	2.4	0	0	---	0.00	30.520 
05:40	8.4	8.4	8.4	76	2.4	0	0	---	0.00	30.520 
05:45	8.3	8.3	8.3	76	2.3	0	0	---	0.00	30.526 
05:50	8.3	8.3	8.3	76	2.3	0	0	---	0.00	30.526 
05:55	8.1	8.1	8.1	76	2.1	0	0	---	0.00	30.526 
06:00	8.1	8.1	8.1	76	2.1	0	0	---	0.00	30.524 
06:05	7.9	7.9	7.9	76	1.9	0	0	---	0.00	30.524 
06:10	8.1	8.1	8.1	77	2.4	0	0	---	0.00	30.524 
06:15	8.1	8.1	8.1	77	2.4	0	0	---	0.00	30.538 
06:20	8.3	8.3	8.3	77	2.6	0	1	248	0.00	30.538 
06:25	8.4	8.4	8.4	77	2.7	0	0	---	0.00	30.538 
06:30	8.4	8.4	8.4	77	2.7	0	1	248	0.00	30.554 
06:35	8.6	8.6	8.6	77	2.9	0	0	---	0.00	30.554 
06:40	8.6	8.6	8.6	77	2.9	0	0	---	0.00	30.554 
06:45	8.8	8.8	8.8	77	3.1	0	1	248	0.00	30.555 
06:50	8.8	8.8	8.8	77	3.1	0	0	---	0.00	30.555 
06:55	8.8	8.8	8.8	76	2.8	0	0	---	0.00	30.555 
07:00	8.8	8.8	8.8	76	2.8	0	0	---	0.00	30.547 
07:05	8.8	8.8	8.8	76	2.8	0	0	---	0.00	30.547 
07:10	8.8	8.8	8.8	76	2.8	0	0	---	0.00	30.547 
07:15	8.8	8.8	8.8	76	2.8	0	0	---	0.00	30.553 
07:20	8.8	8.8	8.8	76	2.8	0	0	---	0.00	30.553 
07:25	8.8	8.8	8.8	76	2.8	0	0	---	0.00	30.553 
07:30	8.6	8.6	8.6	76	2.6	0	0	---	0.00	30.546 
07:35	8.6	8.6	8.6	76	2.6	0	0	---	0.00	30.546 
07:40	8.6	8.6	8.6	76	2.6	0	0	---	0.00	30.546 
07:45	8.6	8.6	8.6	77	2.9	0	0	---	0.00	30.548 
07:50	8.4	8.4	8.4	77	2.7	0	0	---	0.00	30.548 
07:55	8.4	8.4	8.4	77	2.7	0	0	---	0.00	30.548 
08:00	8.4	8.4	8.4	77	2.7	0	0	---	0.00	30.556 
08:05	8.6	8.6	8.6	77	2.9	0	0	---	0.00	30.556 
08:10	8.6	8.6	8.6	77	2.9	0	0	---	0.00	30.556 
08:15	8.6	8.6	8.6	77	2.9	0	0	---	0.00	30.556 
08:20	8.8	8.8	8.8	78	3.4	0	1	248	0.00	30.556 
08:25	9.0	9.0	9.0	78	3.6	0	0	---	0.00	30.556 
08:30	9.2	9.2	9.2	78	3.8	0	0	---	0.00	30.556 
08:35	9.2	9.2	9.2	78	3.8	0	0	---	0.00	30.556 
08:40	9.3	9.3	9.3	78	3.9	0	0	---	0.00	30.556 
08:45	9.7	9.7	9.7	78	4.2	0	0	---	0.00	30.549 
08:50	10.0	10.0	10.0	77	4.3	0	0	---	0.00	30.549 
08:55	10.2	10.2	10.2	77	4.5	0	0	---	0.00	30.549 
09:00	10.4	10.4	10.4	76	4.4	0	0	---	0.00	30.552 
09:05	10.5	10.5	10.5	76	4.5	0	0	---	0.00	30.552 
09:10	10.7	10.7	10.7	76	4.7	0	0	---	0.00	30.552 
09:15	10.9	10.9	10.9	75	4.6	0	0	---	0.00	30.553 
09:20	11.1	11.1	11.1	75	4.8	0	0	---	0.00	30.553 
09:25	11.2	11.2	11.2	74	4.6	0	0	---	0.00	30.553 
09:30	11.4	11.4	11.4	74	4.8	0	0	---	0.00	30.556 
09:35	11.7	11.7	11.7	74	5.0	0	0	---	0.00	30.556 
09:40	11.9	11.9	11.9	74	5.2	0	0	---	0.00	30.556 
09:45	12.1	12.1	12.1	73	5.1	0	0	---	0.00	30.557 
09:50	12.4	12.4	12.4	73	5.4	0	0	---	0.00	30.557 
09:55	12.8	12.8	12.8	72	5.5	0	0	---	0.00	30.557 
10:00	12.8	12.8	12.8	72	5.5	0	0	---	0.00	30.553 
10:05	12.9	12.9	12.9	72	5.6	0	0	---	0.00	30.553 
10:10	13.3	13.3	13.3	71	5.7	0	0	---	0.00	30.553 
10:15	13.5	13.5	13.5	71	5.9	0	1	248	0.00	30.551 
10:20	13.8	13.8	13.8	71	6.2	0	0	---	0.00	30.551 
10:25	14.0	14.0	14.0	71	6.4	0	1	248	0.00	30.551 
10:30	13.8	13.8	13.8	71	6.2	0	2	248	0.00	30.564 
10:35	13.8	13.8	13.8	71	6.2	0	1	248	0.00	30.564 
10:40	14.1	14.1	14.1	72	6.8	0	0	---	0.00	30.564 
10:45	14.6	14.6	14.6	72	7.2	0	1	248	0.00	30.567 
10:50	14.9	14.9	14.9	70	6.9	0	2	248	0.00	30.567 
10:55	14.9	14.9	14.9	70	6.9	0	2	248	0.00	30.567 
11:00	15.2	15.2	15.2	70	7.2	0	1	248	0.00	30.575 
11:05	15.6	15.6	15.6	69	7.3	0	1	248	0.00	30.575 
11:10	15.6	15.6	15.6	69	7.3	0	3	248	0.00	30.575 
11:15	15.7	15.7	15.7	69	7.4	0	1	248	0.00	30.572 
11:20	16.1	16.1	16.1	69	7.8	0	2	248	0.00	30.572 
11:25	16.5	16.5	16.5	68	7.8	0	1	248	0.00	30.572 
11:30	16.5	16.5	16.5	68	7.8	0	1	248	0.00	30.574 
11:35	16.7	16.7	16.7	68	8.0	0	1	248	0.00	30.574 
11:40	16.7	16.7	16.7	67	7.7	1	3	248	0.00	30.574 
11:45	16.7	16.7	16.7	67	7.7	1	3	248	0.00	30.579 
11:50	16.5	16.5	16.5	68	7.8	1	3	248	0.00	30.579 
11:55	16.7	16.7	16.7	68	8.0	0	1	90	0.00	30.579 
12:00	16.9	16.9	16.9	67	7.9	0	1	90	0.00	30.567 
12:05	17.0	17.0	17.0	67	8.0	0	2	90	0.00	30.567 
12:10	16.7	16.7	16.7	67	7.7	0	3	90	0.00	30.567 
12:15	16.4	16.4	16.4	67	7.4	0	1	90	0.00	30.564 
12:20	16.4	16.4	16.4	66	7.1	0	1	90	0.00	30.564 
12:25	16.5	16.5	16.5	65	6.8	1	4	90	0.00	30.564 
12:30	16.2	16.2	16.2	65	6.5	2	4	90	0.00	30.560 
12:35	16.2	16.2	16.2	65	6.5	1	2	90	0.00	30.560 
12:40	16.9	16.9	16.9	65	7.2	0	2	90	0.00	30.560 
12:45	17.3	17.3	17.3	64	7.2	0	2	90	0.00	30.548 
12:50	17.7	17.7	17.7	63	7.3	1	5	90	0.00	30.548 
12:55	17.7	17.7	17.7	64	7.6	1	4	90	0.00	30.548 
13:00	17.3	17.3	17.3	63	6.9	1	4	68	0.00	30.539 
13:05	17.2	17.2	17.2	61	6.1	0	4	68	0.00	30.539 
13:10	17.0	17.0	17.0	60	5.5	1	3	90	0.00	30.539 
13:15	17.2	17.2	17.2	60	5.7	0	2	90	0.00	30.531 
13:20	17.3	17.3	17.3	61	6.2	1	3	90	0.00	30.531 
13:25	17.8	17.8	17.8	62	7.0	0	1	90	0.00	30.531 
13:30	18.0	18.0	18.0	61	6.9	0	2	90	0.00	30.517 
13:35	17.8	17.8	17.8	60	6.3	1	3	90	0.00	30.517 
13:40	17.7	17.7	17.7	59	5.8	0	1	90	0.00	30.517 
13:45	17.8	17.8	17.8	58	5.6	1	5	90	0.00	30.513 
13:50	18.1	18.1	18.1	62	7.3	1	3	90	0.00	30.513 
13:55	18.4	18.4	18.4	60	6.9	1	4	90	0.00	30.513 
14:00	18.4	18.4	18.4	58	6.1	1	3	112	0.00	30.504 
14:05	18.3	18.3	18.3	58	6.0	1	3	90	0.00	30.504 
14:10	18.3	18.3	18.3	57	5.7	0	1	90	0.00	30.504 
14:15	18.3	18.3	18.3	58	6.0	1	4	90	0.00	30.498 
14:20	18.4	18.4	18.4	58	6.1	0	1	90	0.00	30.498 
14:25	18.6	18.6	18.6	59	6.7	1	5	338	0.00	30.498 
14:30	18.8	18.8	18.8	59	6.9	1	3	112	0.00	30.497 
14:35	18.4	18.4	18.4	59	6.5	1	4	112	0.00	30.497 
14:40	18.3	18.3	18.3	58	6.0	0	3	90	0.00	30.497 
14:45	18.1	18.1	18.1	59	6.2	0	2	90	0.00	30.497 
14:50	18.0	18.0	18.0	59	6.1	2	6	112	0.00	30.497 
14:55	18.3	18.3	18.3	59	6.4	0	2	112	0.00	30.497 
15:00	18.4	18.4	18.4	60	6.9	1	7	112	0.00	30.486 
15:05	18.3	18.3	18.3	61	7.1	2	4	68	0.00	30.486 
15:10	18.1	18.1	18.1	59	6.2	0	3	135	0.00	30.486 
15:15	17.8	17.8	17.8	59	5.9	2	6	112	0.00	30.479 
15:20	17.3	17.3	17.3	61	6.2	3	6	112	0.00	30.479 
15:25	17.0	17.0	17.0	60	5.5	1	5	90	0.00	30.479 
15:30	17.0	17.0	17.0	62	6.3	2	9	45	0.00	30.478 
15:35	17.2	17.2	17.2	62	6.4	1	3	45	0.00	30.478 
15:40	17.2	17.2	17.2	62	6.4	0	2	112	0.00	30.478 
15:45	17.3	17.3	17.3	62	6.5	1	4	112	0.00	30.470 
15:50	17.5	17.5	17.5	62	6.7	0	2	112	0.00	30.470 
15:55	17.7	17.7	17.7	60	6.2	1	4	112	0.00	30.470 
16:00	17.7	17.7	17.7	60	6.2	2	5	112	0.00	30.475 
16:05	17.2	17.2	17.2	60	5.7	1	4	112	0.00	30.475 
16:10	17.0	17.0	17.0	59	5.2	1	4	112	0.00	30.475 
16:15	16.7	16.7	16.7	59	4.9	1	4	112	0.00	30.474 
16:20	16.5	16.5	16.5	60	5.1	1	3	112	0.00	30.474 
16:25	16.5	16.5	16.5	60	5.1	0	2	112	0.00	30.474 
16:30	16.5	16.5	16.5	60	5.1	0	2	112	0.00	30.467 
16:35	16.5	16.5	16.5	60	5.1	0	1	112	0.00	30.467 
16:40	16.7	16.7	16.7	60	5.3	0	1	112	0.00	30.467 
16:45	16.9	16.9	16.9	60	5.4	2	5	112	0.00	30.465 
16:50	16.7	16.7	16.7	60	5.3	3	5	112	0.00	30.465 
16:55	16.4	16.4	16.4	61	5.3	3	6	90	0.00	30.465 
17:00	16.1	16.1	16.1	61	5.1	2	5	90	0.00	30.470 
17:05	15.7	15.7	15.7	61	4.7	1	4	90	0.00	30.470 
17:10	15.6	15.6	15.6	61	4.6	1	2	90	0.00	30.470 
17:15	15.4	15.4	15.4	61	4.4	1	3	90	0.00	30.467 
17:20	15.4	15.4	15.4	61	4.4	1	3	90	0.00	30.467 
17:25	15.2	15.2	15.2	62	4.6	0	3	90	0.00	30.467 
17:30	15.2	15.2	15.2	62	4.6	0	2	90	0.00	30.463 
17:35	15.2	15.2	15.2	62	4.6	0	2	90	0.00	30.463 
17:40	15.1	15.1	15.1	62	4.5	0	1	90	0.00	30.463 
17:45	15.1	15.1	15.1	62	4.5	1	2	90	0.00	30.460 
17:50	14.9	14.9	14.9	62	4.3	0	1	90	0.00	30.460 
17:55	14.8	14.8	14.8	63	4.5	0	1	90	0.00	30.460 
18:00	14.6	14.6	14.6	64	4.7	0	1	90	0.00	30.458 
18:05	14.3	14.3	14.3	65	4.7	0	1	90	0.00	30.458 
18:10	14.1	14.1	14.1	65	4.5	0	1	90	0.00	30.458 
18:15	14.0	14.0	14.0	66	4.8	0	1	90	0.00	30.457 
18:20	13.8	13.8	13.8	66	4.6	0	0	---	0.00	30.457 
18:25	13.6	13.6	13.6	66	4.4	0	1	90	0.00	30.457 
18:30	13.5	13.5	13.5	67	4.6	0	1	90	0.00	30.450 
18:35	13.5	13.5	13.5	67	4.6	0	1	90	0.00	30.450 
18:40	13.5	13.5	13.5	67	4.6	0	1	90	0.00	30.450 
18:45	13.5	13.5	13.5	67	4.6	0	1	90	0.00	30.449 
18:50	13.3	13.3	13.3	67	4.4	0	1	90	0.00	30.449 
18:55	13.3	13.3	13.3	67	4.4	0	1	90	0.00	30.449 
19:00	13.1	13.1	13.1	68	4.6	0	0	---	0.00	30.456 
19:05	12.9	12.9	12.9	68	4.4	0	0	---	0.00	30.456 
19:10	12.8	12.8	12.8	69	4.6	0	0	---	0.00	30.456 
19:15	12.8	12.8	12.8	69	4.6	0	1	90	0.00	30.461 
19:20	12.6	12.6	12.6	70	4.7	0	1	90	0.00	30.461 
19:25	12.6	12.6	12.6	70	4.7	0	1	90	0.00	30.461 
19:30	12.6	12.6	12.6	70	4.7	0	1	90	0.00	30.464 
19:35	12.6	12.6	12.6	70	4.7	0	2	90	0.00	30.464 
19:40	12.6	12.6	12.6	70	4.7	0	1	90	0.00	30.464 
19:45	12.6	12.6	12.6	70	4.7	0	1	90	0.00	30.465 
19:50	12.6	12.6	12.6	70	4.7	0	2	90	0.00	30.465 
19:55	12.6	12.6	12.6	69	4.4	0	2	90	0.00	30.465 
20:00	12.8	12.8	12.8	69	4.6	0	2	90	0.00	30.462 
20:05	12.8	12.8	12.8	69	4.6	0	3	90	0.00	30.462 
20:10	12.8	12.8	12.8	69	4.6	0	1	90	0.00	30.462 
20:15	12.8	12.8	12.8	69	4.6	0	2	90	0.00	30.460 
20:20	12.8	12.8	12.8	69	4.6	0	1	90	0.00	30.460 
20:25	12.6	12.6	12.6	69	4.4	0	2	90	0.00	30.460 
20:30	12.6	12.6	12.6	69	4.4	0	2	90	0.00	30.444 
20:35	12.6	12.6	12.6	69	4.4	1	2	90	0.00	30.444 
20:40	12.6	12.6	12.6	69	4.4	0	2	90	0.00	30.444 
20:45	12.4	12.4	12.4	69	4.2	1	2	90	0.00	30.444 
20:50	12.6	12.6	12.6	69	4.4	1	2	90	0.00	30.444 
20:55	12.6	12.6	12.6	69	4.4	0	2	90	0.00	30.444 
21:00	12.6	12.6	12.6	69	4.4	1	2	90	0.00	30.441 
21:05	12.4	12.4	12.4	69	4.2	0	1	90	0.00	30.441 
21:10	12.4	12.4	12.4	69	4.2	0	2	90	0.00	30.441 
21:15	12.4	12.4	12.4	69	4.2	0	1	90	0.00	30.428 
21:20	12.4	12.4	12.4	69	4.2	0	1	90	0.00	30.428 
21:25	12.4	12.4	12.4	69	4.2	0	2	90	0.00	30.428 
21:30	12.3	12.3	12.3	69	4.1	0	1	90	0.00	30.436 
21:35	12.3	12.3	12.3	69	4.1	0	2	90	0.00	30.436 
21:40	12.3	12.3	12.3	69	4.1	0	2	90	0.00	30.436 
21:45	12.3	12.3	12.3	69	4.1	0	2	90	0.00	30.438 
21:50	12.4	12.4	12.4	69	4.2	1	2	90	0.00	30.438 
21:55	12.4	12.4	12.4	69	4.2	1	2	90	0.00	30.438 
22:00	12.3	12.3	12.3	69	4.1	1	3	90	0.00	30.431 
22:05	12.3	12.3	12.3	69	4.1	0	1	90	0.00	30.431 
22:10	12.3	12.3	12.3	69	4.1	0	1	90	0.00	30.431 
22:15	12.3	12.3	12.3	69	4.1	1	2	90	0.00	30.423 
22:20	12.3	12.3	12.3	69	4.1	1	3	90	0.00	30.423 
22:25	12.1	12.1	12.1	69	3.9	0	2	90	0.00	30.423 
22:30	12.1	12.1	12.1	69	3.9	1	3	90	0.00	30.417 
22:35	12.1	12.1	12.1	69	3.9	0	2	90	0.00	30.417 
22:40	11.9	11.9	11.9	70	4.0	1	2	90	0.00	30.417 
22:45	11.9	11.9	11.9	70	4.0	0	2	90	0.00	30.410 
22:50	11.7	11.7	11.7	70	3.8	0	2	90	0.00	30.410 
22:55	11.7	11.7	11.7	70	3.8	0	3	90	0.00	30.410 
23:00	11.7	11.7	11.7	70	3.8	1	3	90	0.00	30.408 
23:05	11.7	11.7	11.7	70	3.8	0	3	90	0.00	30.408 
23:10	11.7	11.7	11.7	70	3.8	1	2	90	0.00	30.408 
23:15	11.7	11.7	11.7	70	3.8	0	2	90	0.00	30.404 
23:20	11.7	11.7	11.7	70	3.8	0	1	90	0.00	30.404 
23:25	11.6	11.6	11.6	70	3.7	0	1	90	0.00	30.404 
23:30	11.6	11.6	11.6	71	4.0	0	1	90	0.00	30.405 
23:35	11.6	11.6	11.6	71	4.0	0	1	90	0.00	30.405 
23:40	11.6	11.6	11.6	71	4.0	0	1	90	0.00	30.405 
23:45	11.4	11.4	11.4	71	3.9	0	1	90	0.00	30.394 
23:50	11.2	11.2	11.2	71	3.7	0	0	---	0.00	30.394 
23:55	11.2	11.2	11.2	72	4.0	0	1	90	0.00	30.394 

CoCoRaHS
IN-AL-39
A2 Web Hosting
Creative Commons License
GoDaddy
search engine by freefind advanced

loaded 2018-11-14 04:04:07 • last modified 2010-11-18 10:43:29
Privacy PolicyDisclaimer
• wx.awcolley.com is powered by PmWiki v.2002016 •
• all content (unless otherwise noted) © 2018 A W Colley